createdAt,value
2023-04-02T00:01:06.852Z,0.60
2023-04-02T00:04:08.952Z,0.60
2023-04-02T00:06:44.793Z,0.60
2023-04-02T00:09:27.663Z,0.82
2023-04-02T00:11:55.777Z,0.60
2023-04-02T00:14:27.155Z,0.50
2023-04-02T00:16:56.448Z,0.50
2023-04-02T00:19:30.650Z,0.75
2023-04-02T00:22:01.620Z,0.80
2023-04-02T00:24:29.204Z,0.60
2023-04-02T00:26:57.039Z,0.65
2023-04-02T00:29:24.624Z,0.60
2023-04-02T00:31:54.049Z,0.65
2023-04-02T00:34:24.907Z,0.80
2023-04-02T00:36:53.729Z,0.70
2023-04-02T00:39:27.018Z,0.60
2023-04-02T00:42:04.677Z,0.60
2023-04-02T00:44:33.958Z,0.63
2023-04-02T00:47:09.981Z,0.60
2023-04-02T00:49:40.657Z,0.70
2023-04-02T00:52:11.803Z,0.77
2023-04-02T00:54:46.247Z,0.52
2023-04-02T00:57:18.388Z,0.52
2023-04-02T00:59:54.982Z,0.60
2023-04-02T01:02:29.983Z,0.82
2023-04-02T01:04:59.846Z,0.70
2023-04-02T01:07:48.362Z,0.60
2023-04-02T01:10:36.838Z,0.52
2023-04-02T01:13:13.113Z,0.60
2023-04-02T01:15:43.893Z,0.52
2023-04-02T01:18:26.431Z,0.90
2023-04-02T01:21:25.991Z,0.80
2023-04-02T01:24:05.972Z,0.60
2023-04-02T01:26:47.863Z,0.60
2023-04-02T01:29:20.363Z,0.68
2023-04-02T01:31:50.185Z,0.60
2023-04-02T01:34:20.826Z,0.50
2023-04-02T01:37:01.186Z,0.60
2023-04-02T01:39:43.540Z,0.50
2023-04-02T01:42:19.871Z,0.50
2023-04-02T01:44:51.725Z,0.77
2023-04-02T01:47:22.918Z,0.63
2023-04-02T01:49:50.687Z,0.75
2023-04-02T01:52:26.908Z,0.47
2023-04-02T01:54:58.050Z,0.60
2023-04-02T01:57:25.960Z,0.50
2023-04-02T01:59:55.618Z,0.70
2023-04-02T02:02:23.470Z,0.50
2023-04-02T02:04:51.500Z,0.77
2023-04-02T02:07:21.550Z,0.63
2023-04-02T02:09:51.916Z,0.57
2023-04-02T02:12:19.811Z,0.63
2023-04-02T02:14:49.028Z,0.50
2023-04-02T02:17:28.373Z,0.60
2023-04-02T02:19:58.956Z,0.60
2023-04-02T02:22:30.450Z,0.50
2023-04-02T02:25:00.323Z,0.60
2023-04-02T02:27:56.261Z,0.60
2023-04-02T02:30:28.861Z,0.60
2023-04-02T02:33:06.623Z,0.50
2023-04-02T02:35:41.781Z,0.75
2023-04-02T02:38:27.748Z,0.70
2023-04-02T02:41:00.673Z,0.70
2023-04-02T02:43:29.309Z,0.50
2023-04-02T02:46:00.693Z,0.57
2023-04-02T02:48:37.106Z,0.50
2023-04-02T02:51:10.218Z,0.70
2023-04-02T02:53:48.628Z,0.70
2023-04-02T02:56:16.952Z,0.50
2023-04-02T02:58:44.914Z,0.60
2023-04-02T03:01:13.056Z,0.60
2023-04-02T03:03:44.757Z,0.60
2023-04-02T03:06:17.486Z,0.93
2023-04-02T03:08:53.083Z,0.65
2023-04-02T03:11:29.230Z,0.60
2023-04-02T03:14:04.582Z,0.70
2023-04-02T03:16:37.490Z,0.60
2023-04-02T03:19:16.246Z,0.90
2023-04-02T03:21:49.918Z,0.70
2023-04-02T03:24:20.948Z,0.60
2023-04-02T03:26:53.423Z,0.68
2023-04-02T03:29:28.054Z,0.70
2023-04-02T03:32:01.013Z,0.70
2023-04-02T03:34:35.343Z,0.68
2023-04-02T03:37:08.997Z,0.80
2023-04-02T03:39:42.469Z,0.52
2023-04-02T03:42:16.452Z,0.70
2023-04-02T03:44:48.955Z,0.70
2023-04-02T03:47:22.198Z,0.60
2023-04-02T03:49:58.065Z,0.80
2023-04-02T03:52:27.636Z,0.80
2023-04-02T03:54:57.233Z,0.73
2023-04-02T03:57:30.392Z,0.63
2023-04-02T04:00:05.225Z,0.60
2023-04-02T04:02:43.336Z,0.73
2023-04-02T04:05:23.663Z,0.60
2023-04-02T04:07:54.408Z,0.90
2023-04-02T04:10:26.885Z,0.80
2023-04-02T04:12:57.758Z,0.77
2023-04-02T04:15:30.609Z,0.70
2023-04-02T04:18:03.184Z,0.60
2023-04-02T04:20:39.177Z,0.60
2023-04-02T04:23:14.648Z,0.65
2023-04-02T04:25:42.432Z,0.77
2023-04-02T04:28:21.451Z,0.68
2023-04-02T04:30:54.005Z,0.95
2023-04-02T04:33:26.193Z,0.60
2023-04-02T04:35:58.554Z,0.95
2023-04-02T04:38:33.755Z,0.60
2023-04-02T04:41:06.344Z,1.05
2023-04-02T04:43:43.168Z,0.70
2023-04-02T04:46:14.584Z,0.60
2023-04-02T04:48:50.149Z,0.70
2023-04-02T04:51:24.405Z,0.60
2023-04-02T04:53:55.099Z,0.82
2023-04-02T04:56:26.830Z,0.70
2023-04-02T04:59:01.641Z,0.75
2023-04-02T05:01:35.347Z,0.68
2023-04-02T05:04:10.290Z,0.68
2023-04-02T05:06:43.773Z,0.52
2023-04-02T05:09:20.995Z,0.63
2023-04-02T05:11:53.662Z,0.70
2023-04-02T05:14:30.716Z,0.80
2023-04-02T05:17:05.080Z,0.80
2023-04-02T05:19:38.119Z,0.90
2023-04-02T05:22:18.629Z,0.80
2023-04-02T05:24:57.705Z,0.73
2023-04-02T05:27:34.809Z,0.82
2023-04-02T05:30:10.670Z,0.63
2023-04-02T05:32:43.984Z,0.85
2023-04-02T05:35:17.700Z,0.90
2023-04-02T05:37:47.531Z,0.63
2023-04-02T05:40:21.841Z,0.57
2023-04-02T05:42:52.808Z,0.70
2023-04-02T05:45:32.043Z,0.80
2023-04-02T05:48:05.875Z,0.60
2023-04-02T05:50:37.514Z,0.75
2023-04-02T05:53:11.453Z,0.60
2023-04-02T05:55:51.270Z,1.38
2023-04-02T06:01:05.152Z,0.80
2023-04-02T06:03:44.700Z,0.70
2023-04-02T06:06:19.092Z,1.30
2023-04-02T06:08:55.895Z,0.88
2023-04-02T06:11:28.111Z,0.70
2023-04-02T06:13:55.965Z,0.90
2023-04-02T06:16:28.510Z,0.90
2023-04-02T06:18:56.909Z,1.33
2023-04-02T06:21:24.787Z,1.10
2023-04-02T06:23:57.273Z,1.17
2023-04-02T06:26:28.896Z,0.93
2023-04-02T06:29:03.118Z,1.30
2023-04-02T06:31:37.390Z,1.02
2023-04-02T06:34:07.750Z,0.98
2023-04-02T06:36:35.714Z,1.00
2023-04-02T06:39:09.985Z,1.10
2023-04-02T06:41:37.701Z,1.20
2023-04-02T06:44:22.576Z,1.25
2023-04-02T06:46:53.137Z,1.02
2023-04-02T06:49:31.707Z,1.00
2023-04-02T06:52:01.540Z,1.25
2023-04-02T06:54:30.708Z,0.82
2023-04-02T06:56:58.428Z,1.30
2023-04-02T06:59:29.312Z,1.10
2023-04-02T07:02:02.907Z,1.00
2023-04-02T07:04:31.029Z,0.90
2023-04-02T07:06:58.780Z,0.90
2023-04-02T07:09:26.916Z,0.90
2023-04-02T07:11:55.897Z,0.80
2023-04-02T07:14:23.500Z,0.80
2023-04-02T07:16:52.635Z,1.00
2023-04-02T07:19:22.938Z,1.02
2023-04-02T07:21:50.986Z,1.00
2023-04-02T07:24:18.716Z,1.20
2023-04-02T07:26:48.215Z,1.05
2023-04-02T07:29:17.901Z,1.00
2023-04-02T07:31:45.684Z,0.97
2023-04-02T07:34:13.447Z,1.20
2023-04-02T07:36:41.818Z,0.90
2023-04-02T07:39:09.486Z,0.70
2023-04-02T07:41:52.128Z,1.10
2023-04-02T07:44:21.274Z,0.90
2023-04-02T07:46:49.021Z,0.80
2023-04-02T07:49:16.805Z,0.70
2023-04-02T07:51:44.419Z,0.90
2023-04-02T07:54:13.046Z,0.77
2023-04-02T07:56:41.213Z,0.90
2023-04-02T07:59:08.975Z,0.85
2023-04-02T08:01:42.496Z,0.80
2023-04-02T08:04:18.466Z,0.70
2023-04-02T08:06:50.769Z,0.80
2023-04-02T08:09:18.723Z,0.77
2023-04-02T08:11:46.747Z,0.82
2023-04-02T08:14:14.891Z,1.20
2023-04-02T08:16:52.964Z,0.90
2023-04-02T08:19:21.232Z,1.00
2023-04-02T08:21:50.729Z,0.93
2023-04-02T08:24:19.218Z,0.70
2023-04-02T08:26:47.344Z,0.60
2023-04-02T08:29:15.015Z,0.80
2023-04-02T08:31:42.830Z,0.70
2023-04-02T08:34:12.044Z,0.90
2023-04-02T08:36:42.535Z,1.00
2023-04-02T08:39:12.017Z,0.80
2023-04-02T08:41:46.045Z,1.00
2023-04-02T08:44:23.412Z,1.77
2023-04-02T08:46:56.339Z,1.40
2023-04-02T08:49:31.915Z,1.93
2023-04-02T08:52:05.450Z,2.73
2023-04-02T08:54:37.937Z,1.17
2023-04-02T08:57:09.932Z,1.30
2023-04-02T08:59:41.204Z,1.20
2023-04-02T09:02:30.082Z,1.20
2023-04-02T09:05:01.470Z,1.40
2023-04-02T09:07:29.590Z,1.80
2023-04-02T09:09:58.298Z,1.00
2023-04-02T09:12:28.704Z,1.00
2023-04-02T09:15:07.442Z,1.20
2023-04-02T09:17:46.430Z,1.00
2023-04-02T09:20:26.332Z,1.00
2023-04-02T09:22:55.470Z,1.07
2023-04-02T09:25:27.079Z,0.90
2023-04-02T09:27:56.964Z,0.90
2023-04-02T09:30:34.367Z,1.00
2023-04-02T09:33:07.523Z,1.00
2023-04-02T09:35:54.438Z,1.00
2023-04-02T09:38:24.665Z,1.30
2023-04-02T09:40:59.535Z,1.20
2023-04-02T09:43:30.630Z,1.13
2023-04-02T09:46:03.647Z,1.23
2023-04-02T09:48:35.320Z,0.97
2023-04-02T09:51:16.590Z,1.40
2023-04-02T09:53:47.216Z,0.97
2023-04-02T09:56:17.783Z,1.10
2023-04-02T09:59:03.386Z,1.07
2023-04-02T10:01:33.785Z,0.90
2023-04-02T10:04:04.642Z,1.20
2023-04-02T10:06:35.448Z,1.60
2023-04-02T10:09:22.538Z,1.27
2023-04-02T10:11:52.203Z,1.20
2023-04-02T10:14:24.965Z,1.60
2023-04-02T10:16:56.397Z,0.97
2023-04-02T10:19:41.397Z,1.00
2023-04-02T10:22:16.439Z,1.13
2023-04-02T10:24:44.413Z,0.73
2023-04-02T10:27:25.733Z,1.93
2023-04-02T10:30:09.574Z,0.87
2023-04-02T10:32:43.927Z,0.77
2023-04-02T10:35:20.914Z,1.00
2023-04-02T10:38:07.074Z,0.70
2023-04-02T10:40:37.527Z,0.67
2023-04-02T10:43:31.981Z,0.60
2023-04-02T10:46:03.827Z,0.60
2023-04-02T10:48:42.464Z,0.57
2023-04-02T10:51:26.223Z,0.97
2023-04-02T10:54:03.901Z,0.90
2023-04-02T10:56:44.090Z,1.00
2023-04-02T10:59:20.287Z,0.63
2023-04-02T11:01:51.753Z,0.67
2023-04-02T11:04:25.661Z,0.80
2023-04-02T11:07:11.154Z,0.83
2023-04-02T11:09:46.684Z,0.77
2023-04-02T11:12:22.499Z,1.20
2023-04-02T11:14:51.605Z,0.87
2023-04-02T11:17:20.017Z,0.73
2023-04-02T11:19:47.962Z,0.70
2023-04-02T11:22:17.788Z,0.70
2023-04-02T11:24:48.443Z,0.80
2023-04-02T11:27:19.785Z,0.80
2023-04-02T11:29:50.372Z,1.10
2023-04-02T11:32:35.862Z,0.60
2023-04-02T11:35:36.399Z,0.80
2023-04-02T11:38:42.938Z,1.10
2023-04-02T11:41:12.010Z,0.77
2023-04-02T11:44:00.620Z,0.67
2023-04-02T11:46:48.455Z,0.73
2023-04-02T11:50:10.609Z,0.70
2023-04-02T11:52:52.112Z,0.80
2023-04-02T11:55:28.593Z,0.83
2023-04-02T11:58:20.517Z,0.80
2023-04-02T12:01:22.942Z,0.50
2023-04-02T12:04:06.645Z,0.40
2023-04-02T12:06:50.795Z,0.70
2023-04-02T12:09:22.495Z,0.40
2023-04-02T12:11:52.182Z,0.70
2023-04-02T12:14:49.539Z,0.53
2023-04-02T12:17:25.745Z,0.57
2023-04-02T12:19:55.342Z,0.73
2023-04-02T12:22:25.665Z,0.50
2023-04-02T12:24:56.867Z,0.70
2023-04-02T12:27:27.942Z,0.80
2023-04-02T12:30:11.370Z,0.53
2023-04-02T12:32:39.247Z,0.50
2023-04-02T12:35:08.309Z,0.70
2023-04-02T12:37:36.129Z,0.50
2023-04-02T12:40:17.090Z,0.60
2023-04-02T12:42:44.803Z,0.50
2023-04-02T12:45:24.057Z,0.60
2023-04-02T12:47:53.291Z,0.57
2023-04-02T12:50:22.262Z,0.83
2023-04-02T12:52:53.092Z,0.80
2023-04-02T12:55:23.190Z,0.77
2023-04-02T12:57:56.580Z,1.00
2023-04-02T13:00:36.027Z,1.00
2023-04-02T13:03:18.994Z,0.90
2023-04-02T13:05:51.632Z,0.80
2023-04-02T13:08:23.341Z,0.90
2023-04-02T13:10:58.786Z,0.60
2023-04-02T13:13:30.144Z,0.63
2023-04-02T13:16:08.263Z,0.80
2023-04-02T13:18:39.962Z,0.90
2023-04-02T13:21:23.912Z,0.90
2023-04-02T13:23:51.544Z,0.93
2023-04-02T13:26:23.228Z,0.90
2023-04-02T13:29:01.959Z,1.30
2023-04-02T13:31:32.525Z,1.60
2023-04-02T13:34:00.413Z,1.77
2023-04-02T13:36:29.529Z,2.20
2023-04-02T13:38:57.421Z,1.60
2023-04-02T13:41:27.438Z,1.77
2023-04-02T13:43:55.982Z,1.70
2023-04-02T13:46:26.496Z,2.00
2023-04-02T13:48:56.624Z,1.80
2023-04-02T13:51:30.450Z,1.87
2023-04-02T13:53:59.288Z,2.07
2023-04-02T13:56:27.150Z,1.83
2023-04-02T13:58:54.832Z,2.20
2023-04-02T14:01:25.667Z,2.03
2023-04-02T14:03:56.782Z,2.25
2023-04-02T14:06:32.276Z,2.30
2023-04-02T14:09:04.707Z,1.60
2023-04-02T14:11:47.097Z,2.20
2023-04-02T14:14:40.514Z,1.83
2023-04-02T14:17:19.623Z,1.90
2023-04-02T14:20:08.570Z,1.90
2023-04-02T14:22:49.704Z,2.17
2023-04-02T14:25:27.109Z,2.08
2023-04-02T14:28:06.813Z,2.00
2023-04-02T14:30:46.304Z,1.83
2023-04-02T14:33:27.864Z,2.00
2023-04-02T14:36:07.266Z,2.30
2023-04-02T14:38:45.401Z,2.40
2023-04-02T14:41:18.629Z,2.50
2023-04-02T14:43:53.181Z,2.63
2023-04-02T14:46:25.832Z,2.88
2023-04-02T14:49:00.927Z,3.13
2023-04-02T14:51:37.019Z,2.53
2023-04-02T14:54:12.205Z,2.05
2023-04-02T14:56:45.999Z,2.35
2023-04-02T14:59:30.195Z,2.33
2023-04-02T15:02:02.725Z,2.10
2023-04-02T15:04:36.082Z,1.98
2023-04-02T15:07:14.085Z,2.20
2023-04-02T15:09:46.200Z,1.90
2023-04-02T15:12:22.738Z,1.90
2023-04-02T15:15:02.301Z,1.98
2023-04-02T15:17:31.006Z,2.00
2023-04-02T15:20:14.673Z,2.00
2023-04-02T15:22:53.804Z,1.75
2023-04-02T15:25:30.615Z,1.95
2023-04-02T15:28:08.277Z,1.60
2023-04-02T15:30:38.716Z,1.45
2023-04-02T15:33:46.545Z,1.17
2023-04-02T15:36:47.023Z,1.85
2023-04-02T15:39:39.990Z,1.85
2023-04-02T15:42:28.805Z,2.30
2023-04-02T15:45:18.835Z,1.85
2023-04-02T15:48:02.106Z,2.03
2023-04-02T15:50:45.026Z,1.80
2023-04-02T15:53:27.658Z,2.50
2023-04-02T15:56:04.621Z,2.30
2023-04-02T15:58:46.799Z,1.70
2023-04-02T16:01:23.210Z,2.00
2023-04-02T16:04:12.062Z,2.00
2023-04-02T16:06:53.523Z,2.47
2023-04-02T16:09:27.145Z,2.40
2023-04-02T16:12:01.259Z,2.65
2023-04-02T16:14:32.488Z,2.28
2023-04-02T16:17:17.484Z,2.40
2023-04-02T16:19:54.187Z,2.67
2023-04-02T16:22:25.712Z,2.30
2023-04-02T16:24:59.476Z,2.15
2023-04-02T16:27:33.730Z,2.55
2023-04-02T16:30:28.517Z,2.40
2023-04-02T16:33:08.980Z,2.63
2023-04-02T16:35:46.097Z,2.67
2023-04-02T16:38:27.233Z,2.22
2023-04-02T16:41:08.497Z,2.80
2023-04-02T16:43:50.582Z,2.40
2023-04-02T16:46:38.098Z,2.97
2023-04-02T16:49:25.168Z,2.30
2023-04-02T16:52:01.982Z,2.55
2023-04-02T16:54:36.852Z,2.58
2023-04-02T16:57:28.826Z,2.28
2023-04-02T17:00:07.661Z,2.55
2023-04-02T17:02:46.553Z,2.53
2023-04-02T17:05:28.897Z,2.53
2023-04-02T17:08:08.228Z,2.95
2023-04-02T17:10:46.922Z,2.60
2023-04-02T17:13:25.151Z,2.60
2023-04-02T17:16:03.584Z,2.30
2023-04-02T17:18:33.562Z,2.38
2023-04-02T17:21:05.538Z,2.55
2023-04-02T17:23:55.209Z,4.15
2023-04-02T17:26:26.557Z,2.28
2023-04-02T17:28:55.173Z,2.70
2023-04-02T17:31:27.386Z,2.10
2023-04-02T17:33:55.250Z,2.17
2023-04-02T17:36:33.191Z,2.30
2023-04-02T17:39:11.068Z,2.50
2023-04-02T17:41:44.355Z,2.35
2023-04-02T17:44:36.656Z,2.58
2023-04-02T17:47:14.263Z,2.35
2023-04-02T17:49:48.781Z,2.53
2023-04-02T17:52:21.052Z,2.50
2023-04-02T17:54:58.581Z,2.78
2023-04-02T17:57:48.458Z,2.83
2023-04-02T18:00:30.370Z,3.38
2023-04-02T18:03:16.908Z,3.65
2023-04-02T18:05:47.125Z,3.55
2023-04-02T18:08:25.442Z,2.95
2023-04-02T18:11:05.452Z,3.10
2023-04-02T18:13:36.561Z,3.03
2023-04-02T18:16:37.222Z,3.58
2023-04-02T18:19:15.949Z,4.07
2023-04-02T18:21:52.265Z,3.45
2023-04-02T18:24:37.362Z,3.63
2023-04-02T18:27:19.463Z,3.40
2023-04-02T18:29:55.266Z,3.90
2023-04-02T18:32:43.451Z,4.13
2023-04-02T18:35:24.781Z,3.42
2023-04-02T18:38:12.739Z,3.67
2023-04-02T18:40:50.127Z,4.03
2023-04-02T18:43:30.131Z,4.47
2023-04-02T18:46:06.345Z,4.13
2023-04-02T18:48:43.310Z,4.80
2023-04-02T18:51:16.833Z,5.10
2023-04-02T18:53:47.161Z,4.50
2023-04-02T18:56:19.762Z,3.97
2023-04-02T18:58:56.753Z,4.82
2023-04-02T19:01:31.505Z,5.13
2023-04-02T19:04:10.410Z,4.55
2023-04-02T19:06:45.350Z,4.53
2023-04-02T19:09:20.674Z,4.80
2023-04-02T19:11:48.957Z,4.97
2023-04-02T19:14:18.833Z,4.63
2023-04-02T19:17:00.048Z,3.78
2023-04-02T19:19:37.974Z,4.57
2023-04-02T19:22:21.229Z,3.70
2023-04-02T19:25:06.222Z,4.72
2023-04-02T19:27:47.548Z,4.05
2023-04-02T19:30:34.284Z,3.80
2023-04-02T19:33:09.883Z,3.55
2023-04-02T19:35:44.817Z,3.22
2023-04-02T19:38:33.830Z,3.20
2023-04-02T19:41:06.514Z,3.90
2023-04-02T19:43:34.293Z,3.53
2023-04-02T19:46:17.119Z,3.50
2023-04-02T19:48:50.722Z,3.20
2023-04-02T19:51:18.371Z,2.85
2023-04-02T19:53:47.349Z,4.07
2023-04-02T19:56:21.942Z,3.85
2023-04-02T19:58:49.863Z,3.28
2023-04-02T20:01:23.445Z,3.50
2023-04-02T20:03:51.182Z,4.18
2023-04-02T20:06:19.134Z,3.90
2023-04-02T20:08:48.284Z,3.60
2023-04-02T20:11:16.417Z,3.40
2023-04-02T20:13:44.329Z,3.63
2023-04-02T20:16:12.056Z,3.53
2023-04-02T20:18:39.756Z,3.83
2023-04-02T20:21:07.729Z,3.85
2023-04-02T20:23:36.448Z,3.40
2023-04-02T20:26:06.920Z,3.80
2023-04-02T20:28:35.278Z,3.35
2023-04-02T20:31:11.123Z,3.40
2023-04-02T20:33:39.801Z,3.40
2023-04-02T20:36:09.652Z,3.70
2023-04-02T20:38:39.043Z,3.30
2023-04-02T20:41:09.282Z,3.40
2023-04-02T20:43:41.644Z,3.75
2023-04-02T20:46:11.682Z,3.50
2023-04-02T20:48:40.153Z,3.40
2023-04-02T20:51:09.947Z,3.17
2023-04-02T20:53:38.819Z,3.22
2023-04-02T20:56:12.715Z,3.40
2023-04-02T20:58:41.481Z,3.45
2023-04-02T21:01:11.190Z,3.25
2023-04-02T21:03:39.819Z,3.28
2023-04-02T21:06:13.075Z,3.30
2023-04-02T21:08:40.823Z,2.75
2023-04-02T21:11:13.124Z,3.47
2023-04-02T21:13:43.806Z,3.22
2023-04-02T21:16:19.245Z,3.17
2023-04-02T21:18:48.353Z,2.83
2023-04-02T21:21:17.183Z,3.72
2023-04-02T21:23:46.326Z,3.00
2023-04-02T21:26:17.365Z,2.50
2023-04-02T21:28:46.164Z,3.92
2023-04-02T21:31:15.479Z,3.20
2023-04-02T21:33:46.169Z,3.88
2023-04-02T21:36:15.607Z,3.28
2023-04-02T21:38:43.401Z,3.88
2023-04-02T21:41:18.111Z,3.22
2023-04-02T21:43:48.419Z,3.78
2023-04-02T21:46:17.419Z,3.20
2023-04-02T21:48:45.674Z,3.50
2023-04-02T21:51:15.075Z,3.17
2023-04-02T21:53:43.703Z,3.42
2023-04-02T21:56:13.891Z,3.38
2023-04-02T21:58:43.419Z,3.50
2023-04-02T22:01:24.340Z,3.50
2023-04-02T22:03:56.890Z,3.20
2023-04-02T22:06:26.259Z,3.05
2023-04-02T22:08:59.472Z,3.75
2023-04-02T22:11:29.744Z,3.75
2023-04-02T22:13:59.380Z,3.58
2023-04-02T22:16:30.295Z,3.70
2023-04-02T22:19:00.874Z,3.38
2023-04-02T22:21:31.348Z,3.65
2023-04-02T22:24:00.850Z,3.30
2023-04-02T22:26:28.738Z,3.05
2023-04-02T22:28:57.735Z,3.30
2023-04-02T22:31:27.589Z,3.60
2023-04-02T22:33:56.810Z,3.30
2023-04-02T22:36:26.064Z,3.25
2023-04-02T22:39:06.377Z,3.10
2023-04-02T22:41:34.580Z,3.60
2023-04-02T22:44:04.693Z,3.08
2023-04-02T22:46:32.690Z,3.17
2023-04-02T22:49:00.396Z,3.00
2023-04-02T22:51:30.544Z,3.58
2023-04-02T22:53:58.696Z,2.85
2023-04-02T22:56:30.040Z,3.63
2023-04-02T22:58:57.765Z,3.15
2023-04-02T23:01:33.445Z,3.42
2023-04-02T23:04:01.389Z,3.38
2023-04-02T23:06:29.677Z,2.90
2023-04-02T23:09:02.023Z,3.22
2023-04-02T23:11:29.830Z,2.92
2023-04-02T23:13:58.791Z,3.25
2023-04-02T23:16:32.748Z,3.38
2023-04-02T23:19:00.419Z,3.70
2023-04-02T23:21:28.657Z,3.38
2023-04-02T23:23:56.858Z,3.15
2023-04-02T23:26:27.534Z,3.50
2023-04-02T23:28:58.374Z,3.30
2023-04-02T23:31:27.838Z,3.10
2023-04-02T23:33:55.800Z,3.33
2023-04-02T23:36:25.814Z,3.28
2023-04-02T23:38:55.186Z,3.42
2023-04-02T23:41:26.521Z,3.58
2023-04-02T23:43:55.900Z,3.60
2023-04-02T23:46:23.748Z,3.20
2023-04-02T23:48:52.882Z,3.10
2023-04-02T23:51:20.771Z,2.80
2023-04-02T23:53:48.894Z,3.30
2023-04-02T23:56:16.905Z,3.22
2023-04-02T23:58:44.838Z,3.50
